createdAt,value
2023-01-03T00:02:15.703Z,4.80
2023-01-03T00:04:48.983Z,2.10
2023-01-03T00:07:33.548Z,1.30
2023-01-03T00:10:01.494Z,1.20
2023-01-03T00:12:31.291Z,3.53
2023-01-03T00:15:00.408Z,3.13
2023-01-03T00:17:27.937Z,4.40
2023-01-03T00:19:55.285Z,2.10
2023-01-03T00:22:22.602Z,3.53
2023-01-03T00:24:50.203Z,2.30
2023-01-03T00:27:17.712Z,2.40
2023-01-03T00:29:45.242Z,2.10
2023-01-03T00:32:14.389Z,4.47
2023-01-03T00:34:44.048Z,5.03
2023-01-03T00:37:11.539Z,3.70
2023-01-03T00:39:38.895Z,2.53
2023-01-03T00:42:06.313Z,2.37
2023-01-03T00:44:33.843Z,1.90
2023-01-03T00:47:01.174Z,3.03
2023-01-03T00:49:29.841Z,2.37
2023-01-03T00:51:57.417Z,1.57
2023-01-03T00:54:24.873Z,2.00
2023-01-03T00:56:52.608Z,3.57
2023-01-03T00:59:20.671Z,2.33
2023-01-03T01:01:48.650Z,2.13
2023-01-03T01:04:17.402Z,3.83
2023-01-03T01:06:46.695Z,3.40
2023-01-03T01:09:15.311Z,3.60
2023-01-03T01:11:42.661Z,2.77
2023-01-03T01:14:20.648Z,5.30
2023-01-03T01:16:48.612Z,3.53
2023-01-03T01:19:16.128Z,3.53
2023-01-03T01:21:43.703Z,5.40
2023-01-03T01:24:17.510Z,4.20
2023-01-03T01:26:45.599Z,3.53
2023-01-03T01:29:14.076Z,2.93
2023-01-03T01:31:41.817Z,5.63
2023-01-03T01:34:09.652Z,2.67
2023-01-03T01:36:39.478Z,2.67
2023-01-03T01:39:07.757Z,2.90
2023-01-03T01:41:55.154Z,5.60
2023-01-03T01:44:43.083Z,3.83
2023-01-03T01:47:12.372Z,3.37
2023-01-03T01:49:39.748Z,3.93
2023-01-03T01:52:07.293Z,3.33
2023-01-03T01:54:34.882Z,6.83
2023-01-03T01:57:04.536Z,2.97
2023-01-03T01:59:32.816Z,5.00
2023-01-03T02:02:00.248Z,3.20
2023-01-03T02:04:28.512Z,4.20
2023-01-03T02:06:57.353Z,3.20
2023-01-03T02:09:24.833Z,3.70
2023-01-03T02:12:14.178Z,5.10
2023-01-03T02:14:51.800Z,4.87
2023-01-03T02:17:25.456Z,2.67
2023-01-03T02:20:03.648Z,6.43
2023-01-03T02:22:42.062Z,2.70
2023-01-03T02:25:17.888Z,3.10
2023-01-03T02:28:04.037Z,4.40
2023-01-03T02:30:35.975Z,2.90
2023-01-03T02:33:07.903Z,2.63
2023-01-03T02:35:39.296Z,3.13
2023-01-03T02:38:10.275Z,2.07
2023-01-03T02:40:39.436Z,3.03
2023-01-03T02:43:09.230Z,2.50
2023-01-03T02:45:46.857Z,3.30
2023-01-03T02:48:17.341Z,2.60
2023-01-03T02:50:47.356Z,2.90
2023-01-03T02:53:17.054Z,4.10
2023-01-03T02:55:44.399Z,3.63
2023-01-03T02:58:14.036Z,4.27
2023-01-03T03:00:45.049Z,4.87
2023-01-03T03:03:14.557Z,4.00
2023-01-03T03:05:44.678Z,5.10
2023-01-03T03:08:12.015Z,4.23
2023-01-03T03:10:59.176Z,3.47
2023-01-03T03:13:29.957Z,3.77
2023-01-03T03:16:01.064Z,2.00
2023-01-03T03:18:32.650Z,3.07
2023-01-03T03:21:18.854Z,3.47
2023-01-03T03:24:04.131Z,2.77
2023-01-03T03:26:34.153Z,3.27
2023-01-03T03:29:03.649Z,2.40
2023-01-03T03:31:34.434Z,3.57
2023-01-03T03:34:06.710Z,3.87
2023-01-03T03:36:36.694Z,5.03
2023-01-03T03:39:04.793Z,3.30
2023-01-03T03:41:53.358Z,3.87
2023-01-03T03:44:42.225Z,4.07
2023-01-03T03:47:14.824Z,4.10
2023-01-03T03:49:43.660Z,4.13
2023-01-03T03:52:13.839Z,4.67
2023-01-03T03:54:42.677Z,3.90
2023-01-03T03:57:13.280Z,3.67
2023-01-03T03:59:42.507Z,5.67
2023-01-03T04:02:12.233Z,7.47
2023-01-03T04:04:43.443Z,5.67
2023-01-03T04:07:10.873Z,6.73
2023-01-03T04:09:38.205Z,6.03
2023-01-03T04:12:05.638Z,8.67
2023-01-03T04:14:32.997Z,7.20
2023-01-03T04:17:00.420Z,5.50
2023-01-03T04:19:29.289Z,5.37
2023-01-03T04:21:56.656Z,6.33
2023-01-03T04:24:24.091Z,3.30
2023-01-03T04:26:51.445Z,5.87
2023-01-03T04:29:18.765Z,4.43
2023-01-03T04:31:46.120Z,4.90
2023-01-03T04:34:13.519Z,3.60
2023-01-03T04:36:42.178Z,6.00
2023-01-03T04:39:09.508Z,5.33
2023-01-03T04:41:36.816Z,6.20
2023-01-03T04:44:04.302Z,5.57
2023-01-03T04:46:32.663Z,4.57
2023-01-03T04:49:00.348Z,4.37
2023-01-03T04:51:27.727Z,5.97
2023-01-03T04:53:56.607Z,5.13
2023-01-03T04:56:24.756Z,4.93
2023-01-03T04:58:52.101Z,4.57
2023-01-03T05:01:19.586Z,5.60
2023-01-03T05:03:47.065Z,5.93
2023-01-03T05:06:14.498Z,3.83
2023-01-03T05:08:41.924Z,4.37
2023-01-03T05:11:10.571Z,4.43
2023-01-03T05:13:37.900Z,3.80
2023-01-03T05:16:06.450Z,4.43
2023-01-03T05:18:34.203Z,4.47
2023-01-03T05:21:23.555Z,4.57
2023-01-03T05:24:08.220Z,4.23
2023-01-03T05:26:37.797Z,4.27
2023-01-03T05:29:05.216Z,6.47
2023-01-03T05:31:32.560Z,3.73
2023-01-03T05:34:00.228Z,3.40
2023-01-03T05:36:27.824Z,5.47
2023-01-03T05:38:55.194Z,4.57
2023-01-03T05:41:36.473Z,4.93
2023-01-03T05:44:05.326Z,5.13
2023-01-03T05:46:32.828Z,5.03
2023-01-03T05:49:00.247Z,4.03
2023-01-03T05:51:27.560Z,3.37
2023-01-03T05:53:54.868Z,5.70
2023-01-03T05:56:22.219Z,3.30
2023-01-03T05:58:49.949Z,4.37
2023-01-03T06:01:18.899Z,5.23
2023-01-03T06:03:46.764Z,4.40
2023-01-03T06:06:14.958Z,3.87
2023-01-03T06:08:42.585Z,3.80
2023-01-03T06:11:10.800Z,3.47
2023-01-03T06:13:38.414Z,4.03
2023-01-03T06:16:25.032Z,4.67
2023-01-03T06:18:53.973Z,3.80
2023-01-03T06:21:21.355Z,4.83
2023-01-03T06:23:48.648Z,4.10
2023-01-03T06:26:16.398Z,4.97
2023-01-03T06:28:43.965Z,7.33
2023-01-03T06:31:11.925Z,6.80
2023-01-03T06:33:39.580Z,5.93
2023-01-03T06:36:09.819Z,5.13
2023-01-03T06:38:37.175Z,5.50
2023-01-03T06:41:04.785Z,5.10
2023-01-03T06:43:32.376Z,4.83
2023-01-03T06:46:17.740Z,5.00
2023-01-03T06:49:02.824Z,6.50
2023-01-03T06:51:49.472Z,4.73
2023-01-03T06:54:20.166Z,6.57
2023-01-03T06:56:47.491Z,6.80
2023-01-03T06:59:14.812Z,6.03
2023-01-03T07:01:42.220Z,5.90
2023-01-03T07:04:09.728Z,7.53
2023-01-03T07:06:39.336Z,4.80
2023-01-03T07:09:06.897Z,7.03
2023-01-03T07:11:34.615Z,5.57
2023-01-03T07:14:02.432Z,8.33
2023-01-03T07:16:31.219Z,4.73
2023-01-03T07:18:59.115Z,6.17
2023-01-03T07:21:27.477Z,6.40
2023-01-03T07:23:56.505Z,7.03
2023-01-03T07:26:25.041Z,7.23
2023-01-03T07:28:52.565Z,7.00
2023-01-03T07:31:20.202Z,7.70
2023-01-03T07:33:47.769Z,7.70
2023-01-03T07:36:16.154Z,7.00
2023-01-03T07:38:44.480Z,8.07
2023-01-03T07:41:13.585Z,7.07
2023-01-03T07:43:40.905Z,6.50
2023-01-03T07:46:09.497Z,8.20
2023-01-03T07:48:37.329Z,10.90
2023-01-03T07:51:04.893Z,8.87
2023-01-03T07:53:32.387Z,7.70
2023-01-03T07:56:09.102Z,6.37
2023-01-03T07:58:39.822Z,10.87
2023-01-03T08:01:07.649Z,7.37
2023-01-03T08:03:36.160Z,6.93
2023-01-03T08:06:04.470Z,10.20
2023-01-03T08:08:32.142Z,5.70
2023-01-03T08:11:17.257Z,7.53
2023-01-03T08:13:46.511Z,7.17
2023-01-03T08:16:15.444Z,9.17
2023-01-03T08:18:43.490Z,6.17
2023-01-03T08:21:11.875Z,6.30
2023-01-03T08:23:39.523Z,6.50
2023-01-03T08:26:07.716Z,8.47
2023-01-03T08:28:35.572Z,8.37
2023-01-03T08:31:07.084Z,8.73
2023-01-03T08:33:41.981Z,10.10
2023-01-03T08:36:10.143Z,9.27
2023-01-03T08:38:40.168Z,5.50
2023-01-03T08:41:09.665Z,6.93
2023-01-03T08:43:39.966Z,7.93
2023-01-03T08:46:11.414Z,6.97
2023-01-03T08:48:38.898Z,9.30
2023-01-03T08:51:06.487Z,8.10
2023-01-03T08:53:33.830Z,6.97
2023-01-03T08:56:01.241Z,8.17
2023-01-03T08:58:28.598Z,8.87
2023-01-03T09:00:55.947Z,6.47
2023-01-03T09:03:24.683Z,7.23
2023-01-03T09:05:52.092Z,6.90
2023-01-03T09:08:19.417Z,11.57
2023-01-03T09:10:48.240Z,9.27
2023-01-03T09:13:15.576Z,8.53
2023-01-03T09:15:42.899Z,13.77
2023-01-03T09:18:10.372Z,12.87
2023-01-03T09:20:39.038Z,10.80
2023-01-03T09:23:06.720Z,13.03
2023-01-03T09:25:37.302Z,14.50
2023-01-03T09:28:05.255Z,12.83
2023-01-03T09:30:32.595Z,15.67
2023-01-03T09:32:59.927Z,9.77
2023-01-03T09:35:27.252Z,12.77
2023-01-03T09:37:55.877Z,12.27
2023-01-03T09:40:23.290Z,12.27
2023-01-03T09:43:08.666Z,13.83
2023-01-03T09:45:36.279Z,9.87
2023-01-03T09:48:05.168Z,15.60
2023-01-03T09:50:50.916Z,11.03
2023-01-03T09:53:43.129Z,11.03
2023-01-03T09:56:29.306Z,13.03
2023-01-03T09:59:16.388Z,11.10
2023-01-03T10:02:05.720Z,7.63
2023-01-03T10:04:54.265Z,12.40
2023-01-03T10:07:27.570Z,9.97
2023-01-03T10:10:01.507Z,10.03
2023-01-03T10:12:34.615Z,10.37
2023-01-03T10:15:08.099Z,12.10
2023-01-03T10:17:37.916Z,10.70
2023-01-03T10:20:11.230Z,8.83
2023-01-03T10:22:39.079Z,9.97
2023-01-03T10:25:12.456Z,9.40
2023-01-03T10:27:43.206Z,7.43
2023-01-03T10:30:13.965Z,10.23
2023-01-03T10:32:50.917Z,6.63
2023-01-03T10:35:19.998Z,11.27
2023-01-03T10:37:47.738Z,17.13
2023-01-03T10:40:16.438Z,8.40
2023-01-03T10:42:44.571Z,8.97
2023-01-03T10:45:13.053Z,10.97
2023-01-03T10:47:40.483Z,10.07
2023-01-03T10:50:09.549Z,8.20
2023-01-03T10:52:38.999Z,4.73
2023-01-03T10:55:12.747Z,7.97
2023-01-03T10:57:44.302Z,5.67
2023-01-03T11:00:27.174Z,6.33
2023-01-03T11:02:55.151Z,4.07
2023-01-03T11:05:24.517Z,4.80
2023-01-03T11:07:55.148Z,5.47
2023-01-03T11:10:23.193Z,3.77
2023-01-03T11:12:51.965Z,4.80
2023-01-03T11:15:21.002Z,6.20
2023-01-03T11:17:55.210Z,3.63
2023-01-03T11:20:24.603Z,4.67
2023-01-03T11:22:56.745Z,2.87
2023-01-03T11:25:37.628Z,3.63
2023-01-03T11:28:21.463Z,3.33
2023-01-03T11:30:53.947Z,2.73
2023-01-03T11:33:34.486Z,4.07
2023-01-03T11:36:07.748Z,4.17
2023-01-03T11:38:45.868Z,2.57
2023-01-03T11:41:21.761Z,3.63
2023-01-03T11:43:56.598Z,3.50
2023-01-03T11:46:28.648Z,2.63
2023-01-03T11:49:07.504Z,2.27
2023-01-03T11:51:37.150Z,2.93
2023-01-03T11:54:09.733Z,4.80
2023-01-03T11:56:37.832Z,4.00
2023-01-03T11:59:15.821Z,1.93
2023-01-03T12:01:49.196Z,3.37
2023-01-03T12:04:24.026Z,2.67
2023-01-03T12:07:21.403Z,4.60
2023-01-03T12:09:49.154Z,2.20
2023-01-03T12:12:31.396Z,4.93
2023-01-03T12:15:01.560Z,3.53
2023-01-03T12:17:34.781Z,2.90
2023-01-03T12:20:03.620Z,2.07
2023-01-03T12:22:35.405Z,3.13
2023-01-03T12:25:06.556Z,1.80
2023-01-03T12:27:36.464Z,4.10
2023-01-03T12:30:07.410Z,5.30
2023-01-03T12:32:36.956Z,2.07
2023-01-03T12:35:14.582Z,3.80
2023-01-03T12:37:42.818Z,3.77
2023-01-03T12:40:17.253Z,2.40
2023-01-03T12:42:47.814Z,5.70
2023-01-03T12:45:32.877Z,3.73
2023-01-03T12:48:04.233Z,2.97
2023-01-03T12:50:33.881Z,4.13
2023-01-03T12:53:06.175Z,1.90
2023-01-03T12:55:38.408Z,2.83
2023-01-03T12:58:19.484Z,2.20
2023-01-03T13:00:56.037Z,2.40
2023-01-03T13:03:25.327Z,3.70
2023-01-03T13:05:55.313Z,2.33
2023-01-03T13:08:29.808Z,2.80
2023-01-03T13:11:01.819Z,2.77
2023-01-03T13:13:29.666Z,2.80
2023-01-03T13:15:58.442Z,4.63
2023-01-03T13:18:33.337Z,3.00
2023-01-03T13:21:00.746Z,2.97
2023-01-03T13:23:32.959Z,2.90
2023-01-03T13:26:24.122Z,4.63
2023-01-03T13:28:52.237Z,4.43
2023-01-03T13:31:38.053Z,3.37
2023-01-03T13:34:15.764Z,2.23
2023-01-03T13:37:17.796Z,3.60
2023-01-03T13:39:47.574Z,3.03
2023-01-03T13:42:21.846Z,2.63
2023-01-03T13:44:49.306Z,4.03
2023-01-03T13:47:25.879Z,2.30
2023-01-03T13:49:54.228Z,3.63
2023-01-03T13:52:36.068Z,3.07
2023-01-03T13:55:03.544Z,3.47
2023-01-03T13:57:33.034Z,3.00
2023-01-03T14:00:00.936Z,4.47
2023-01-03T14:02:46.284Z,1.97
2023-01-03T14:05:29.082Z,3.20
2023-01-03T14:08:01.378Z,3.33
2023-01-03T14:10:33.359Z,3.57
2023-01-03T14:13:13.316Z,1.93
2023-01-03T14:15:40.673Z,2.97
2023-01-03T14:18:19.312Z,3.93
2023-01-03T14:20:48.997Z,2.60
2023-01-03T14:23:57.861Z,3.53
2023-01-03T14:26:07.646Z,2.80
2023-01-03T14:28:35.258Z,4.27
2023-01-03T14:31:05.223Z,3.93
2023-01-03T14:33:36.557Z,3.53
2023-01-03T14:36:06.443Z,3.53
2023-01-03T14:38:35.037Z,4.37
2023-01-03T14:41:03.100Z,2.47
2023-01-03T14:43:31.829Z,3.50
2023-01-03T14:46:01.226Z,2.37
2023-01-03T14:48:28.809Z,2.83
2023-01-03T14:50:56.433Z,1.70
2023-01-03T14:53:25.281Z,5.73
2023-01-03T14:55:54.466Z,4.17
2023-01-03T14:58:24.700Z,3.10
2023-01-03T15:00:52.527Z,4.67
2023-01-03T15:03:20.232Z,2.77
2023-01-03T15:05:52.320Z,3.17
2023-01-03T15:08:22.359Z,3.90
2023-01-03T15:10:53.370Z,4.13
2023-01-03T15:13:23.471Z,2.70
2023-01-03T15:15:55.470Z,4.23
2023-01-03T15:18:24.212Z,2.63
2023-01-03T15:20:52.456Z,2.63
2023-01-03T15:23:25.223Z,4.63
2023-01-03T15:25:53.898Z,5.63
2023-01-03T15:28:25.061Z,3.97
2023-01-03T15:30:53.265Z,7.70
2023-01-03T15:33:22.058Z,4.97
2023-01-03T15:35:50.806Z,3.70
2023-01-03T15:38:19.801Z,2.37
2023-01-03T15:40:49.180Z,5.13
2023-01-03T15:43:21.714Z,2.90
2023-01-03T15:45:51.111Z,4.97
2023-01-03T15:48:21.193Z,2.53
2023-01-03T15:50:49.349Z,3.90
2023-01-03T15:53:21.770Z,3.90
2023-01-03T15:55:49.606Z,5.37
2023-01-03T15:58:18.354Z,3.40
2023-01-03T16:00:46.169Z,5.23
2023-01-03T16:03:15.902Z,3.97
2023-01-03T16:05:43.331Z,2.93
2023-01-03T16:08:16.588Z,4.80
2023-01-03T16:10:43.930Z,5.43
2023-01-03T16:13:11.369Z,4.00
2023-01-03T16:15:43.598Z,2.63
2023-01-03T16:18:13.585Z,4.43
2023-01-03T16:20:41.151Z,5.40
2023-01-03T16:23:13.230Z,5.73
2023-01-03T16:25:40.545Z,4.97
2023-01-03T16:28:12.265Z,5.20
2023-01-03T16:30:41.378Z,4.47
2023-01-03T16:33:10.545Z,2.90
2023-01-03T16:35:37.947Z,5.23
2023-01-03T16:38:05.260Z,2.93
2023-01-03T16:40:32.572Z,5.63
2023-01-03T16:42:59.854Z,4.30
2023-01-03T16:45:27.306Z,3.90
2023-01-03T16:47:55.971Z,4.53
2023-01-03T16:50:23.661Z,2.90
2023-01-03T16:52:53.119Z,4.63
2023-01-03T16:55:23.370Z,3.67
2023-01-03T16:57:54.672Z,3.37
2023-01-03T17:00:23.707Z,2.70
2023-01-03T17:02:51.203Z,3.90
2023-01-03T17:05:20.095Z,3.03
2023-01-03T17:07:48.242Z,2.93
2023-01-03T17:10:22.529Z,2.30
2023-01-03T17:12:49.901Z,5.10
2023-01-03T17:15:17.333Z,3.47
2023-01-03T17:17:44.663Z,6.77
2023-01-03T17:20:15.314Z,3.13
2023-01-03T17:22:46.298Z,4.17
2023-01-03T17:25:13.646Z,3.50
2023-01-03T17:27:41.008Z,4.00
2023-01-03T17:30:09.040Z,4.87
2023-01-03T17:32:36.450Z,4.60
2023-01-03T17:35:04.916Z,5.27
2023-01-03T17:37:45.693Z,8.40
2023-01-03T17:40:26.414Z,4.90
2023-01-03T17:42:58.888Z,3.43
2023-01-03T17:45:44.084Z,4.60
2023-01-03T17:48:29.532Z,4.00
2023-01-03T17:50:56.966Z,5.10
2023-01-03T17:53:24.855Z,7.10
2023-01-03T17:55:53.562Z,3.40
2023-01-03T17:58:25.514Z,6.03
2023-01-03T18:00:52.834Z,6.87
2023-01-03T18:03:20.194Z,7.77
2023-01-03T18:05:47.578Z,8.30
2023-01-03T18:08:17.844Z,5.97
2023-01-03T18:10:47.329Z,7.03
2023-01-03T18:13:21.312Z,8.33
2023-01-03T18:15:48.753Z,5.50
2023-01-03T18:18:16.373Z,5.73
2023-01-03T18:20:43.777Z,6.57
2023-01-03T18:23:16.180Z,11.90
2023-01-03T18:25:43.621Z,6.53
2023-01-03T18:28:11.940Z,7.57
2023-01-03T18:30:40.613Z,4.33
2023-01-03T18:33:07.944Z,4.13
2023-01-03T18:35:38.171Z,6.27
2023-01-03T18:38:05.947Z,5.87
2023-01-03T18:40:33.335Z,7.00
2023-01-03T18:43:09.288Z,5.63
2023-01-03T18:45:36.951Z,6.33
2023-01-03T18:48:06.030Z,7.20
2023-01-03T18:50:33.688Z,6.83
2023-01-03T18:53:04.096Z,6.30
2023-01-03T18:55:32.807Z,5.50
2023-01-03T18:58:03.604Z,6.50
2023-01-03T19:00:30.929Z,6.97
2023-01-03T19:02:58.489Z,5.93
2023-01-03T19:05:27.264Z,7.83
2023-01-03T19:07:54.606Z,7.00
2023-01-03T19:10:22.846Z,7.87
2023-01-03T19:12:51.072Z,4.47
2023-01-03T19:15:18.728Z,8.57
2023-01-03T19:17:46.083Z,7.43
2023-01-03T19:20:13.701Z,8.23
2023-01-03T19:22:44.003Z,5.63
2023-01-03T19:25:14.611Z,7.50
2023-01-03T19:27:42.822Z,5.77
2023-01-03T19:30:16.970Z,6.37
2023-01-03T19:32:45.426Z,6.07
2023-01-03T19:35:14.551Z,9.30
2023-01-03T19:37:43.283Z,6.90
2023-01-03T19:40:13.947Z,9.83
2023-01-03T19:42:50.587Z,5.27
2023-01-03T19:45:20.055Z,7.93
2023-01-03T19:47:47.524Z,7.63
2023-01-03T19:50:18.835Z,6.47
2023-01-03T19:52:48.419Z,6.07
2023-01-03T19:55:16.385Z,8.30
2023-01-03T19:57:44.688Z,7.33
2023-01-03T20:00:18.036Z,6.40
2023-01-03T20:02:45.852Z,6.73
2023-01-03T20:05:14.907Z,8.83
2023-01-03T20:07:42.342Z,8.70
2023-01-03T20:10:14.297Z,9.70
2023-01-03T20:12:41.934Z,8.27
2023-01-03T20:15:16.061Z,8.73
2023-01-03T20:17:43.428Z,8.87
2023-01-03T20:20:12.212Z,9.37
2023-01-03T20:25:29.449Z,8.70
2023-01-03T20:27:57.775Z,9.10
2023-01-03T20:30:27.785Z,10.10
2023-01-03T20:32:55.495Z,8.67
2023-01-03T20:38:12.445Z,8.87
2023-01-03T20:40:41.103Z,9.37
2023-01-03T20:43:12.759Z,11.23
2023-01-03T20:45:40.596Z,13.07
2023-01-03T20:48:11.320Z,13.47
2023-01-03T20:50:38.651Z,11.07
2023-01-03T20:53:06.009Z,11.03
2023-01-03T20:55:33.985Z,10.37
2023-01-03T20:58:02.709Z,7.93
2023-01-03T21:00:31.489Z,10.53
2023-01-03T21:02:59.143Z,7.00
2023-01-03T21:05:27.041Z,11.70
2023-01-03T21:08:12.217Z,9.10
2023-01-03T21:10:40.921Z,8.57
2023-01-03T21:13:10.088Z,9.63
2023-01-03T21:15:37.491Z,9.20
2023-01-03T21:18:05.237Z,7.67
2023-01-03T21:20:33.108Z,10.57
2023-01-03T21:23:00.740Z,9.17
2023-01-03T21:25:29.920Z,10.07
2023-01-03T21:27:57.322Z,8.20
2023-01-03T21:30:26.707Z,12.97
2023-01-03T21:32:54.089Z,9.33
2023-01-03T21:35:22.528Z,7.60
2023-01-03T21:37:50.790Z,9.87
2023-01-03T21:40:19.008Z,7.10
2023-01-03T21:43:04.886Z,7.83
2023-01-03T21:45:35.205Z,6.70
2023-01-03T21:48:03.584Z,8.67
2023-01-03T21:50:32.119Z,5.13
2023-01-03T21:52:59.519Z,5.53
2023-01-03T21:55:27.259Z,8.83
2023-01-03T21:57:54.622Z,8.07
2023-01-03T22:00:22.201Z,6.97
2023-01-03T22:03:08.665Z,11.27
2023-01-03T22:05:36.081Z,6.97
2023-01-03T22:08:03.669Z,9.63
2023-01-03T22:10:31.494Z,6.90
2023-01-03T22:13:00.022Z,12.00
2023-01-03T22:15:27.646Z,7.97
2023-01-03T22:17:57.510Z,5.17
2023-01-03T22:20:25.547Z,5.03
2023-01-03T22:22:53.021Z,10.60
2023-01-03T22:25:21.564Z,9.93
2023-01-03T22:27:49.186Z,7.13
2023-01-03T22:30:17.803Z,8.73
2023-01-03T22:32:45.227Z,6.60
2023-01-03T22:35:14.863Z,8.63
2023-01-03T22:37:42.266Z,6.80
2023-01-03T22:40:11.698Z,7.10
2023-01-03T22:42:39.044Z,12.83
2023-01-03T22:45:07.134Z,6.10
2023-01-03T22:47:35.636Z,10.93
2023-01-03T22:50:03.015Z,6.47
2023-01-03T22:52:31.673Z,7.43
2023-01-03T22:54:59.311Z,10.00
2023-01-03T22:57:26.773Z,6.63
2023-01-03T22:59:54.116Z,8.07
2023-01-03T23:02:28.057Z,6.03
2023-01-03T23:04:56.031Z,7.80
2023-01-03T23:07:23.355Z,6.90
2023-01-03T23:09:52.030Z,8.07
2023-01-03T23:12:36.942Z,9.67
2023-01-03T23:15:04.565Z,11.00
2023-01-03T23:17:49.800Z,7.40
2023-01-03T23:20:17.239Z,10.57
2023-01-03T23:22:44.599Z,6.20
2023-01-03T23:25:13.357Z,9.80
2023-01-03T23:27:40.729Z,7.67
2023-01-03T23:30:08.645Z,4.60
2023-01-03T23:32:36.030Z,7.97
2023-01-03T23:35:03.388Z,7.73
2023-01-03T23:37:30.745Z,7.30
2023-01-03T23:39:58.061Z,9.00
2023-01-03T23:42:26.789Z,6.77
2023-01-03T23:44:54.101Z,6.73
2023-01-03T23:47:21.457Z,10.33
2023-01-03T23:49:48.799Z,6.40
2023-01-03T23:52:16.102Z,9.03
2023-01-03T23:54:43.450Z,6.70
2023-01-03T23:57:10.820Z,7.40
2023-01-03T23:59:39.500Z,8.20
